Time;durP1;ratioP1;P1;durP2;ratioP2;P2;SDS_P1;SDS_P2;PMS_P1;PMS_P2;Temp;Humidity;BMP_temperature;BMP_pressure;BME280_temperature;BME280_humidity;BME280_pressure;Samples;Min_cycle;Max_cycle;Signal;HPM_P1;HPM_P2
2024/02/05 00:00:39;;;;;;;;;;;;;;;;;;2201979;67;2638;-24
2024/02/05 00:03:10;;;;;;;;;;;;;;;;;;2201484;67;2032;-24
2024/02/05 00:05:40;;;;;;;;;;;;;;;;;;2202687;61;1970;-24
2024/02/05 00:08:10;;;;;;;;;;;;;;;;;;2200982;67;1796;-24
2024/02/05 00:10:40;;;;;;;;;;;;;;;;;;2201820;67;2499;-24
2024/02/05 00:13:11;;;;;;;;;;;;;;;;;;2201153;67;1993;-24
2024/02/05 00:15:41;;;;;;;;;;;;;;;;;;2202725;67;1910;-24
2024/02/05 00:18:11;;;;;;;;;;;;;;;;;;2201867;59;1990;-24
2024/02/05 00:20:42;;;;;;;;;;;;;;;;;;2201702;59;1821;-24
2024/02/05 00:23:13;;;;;;;;;;;;;;;;;;2200944;59;1945;-24
2024/02/05 00:25:43;;;;;;;;;;;;;;;;;;2198777;59;1815;-24
2024/02/05 00:28:13;;;;;;;;;;;;;;;;;;2201653;59;1881;-24
2024/02/05 00:30:43;;;;;;;;;;;;;;;;;;2202692;67;1952;-24
2024/02/05 00:33:14;;;;;;;;;;;;;;;;;;2197749;59;2457;-24
2024/02/05 00:35:44;;;;;;;;;;;;;;;;;;2202830;67;1805;-24
2024/02/05 00:38:14;;;;;;;;;;;;;;;;;;2200597;59;1932;-24
2024/02/05 00:40:45;;;;;;;;;;;;;;;;;;2202609;67;2395;-24
2024/02/05 00:43:15;;;;;;;;;;;;;;;;;;2200510;67;3030;-24
2024/02/05 00:45:45;;;;;;;;;;;;;;;;;;2201720;67;1837;-24
2024/02/05 00:48:15;;;;;;;;;;;;;;;;;;2200895;67;1893;-24
2024/02/05 00:50:46;;;;;;;;;;;;;;;;;;2202601;59;1898;-24
2024/02/05 00:53:17;;;;;;;;;;;;;;;;;;2201350;67;1936;-24
2024/02/05 00:55:47;;;;;;;;;;;;;;;;;;2202767;67;1845;-24
2024/02/05 00:58:17;;;;;;;;;;;;;;;;;;2201488;59;2598;-24
2024/02/05 01:00:47;;;;;;;;;;;;;;;;;;2200871;59;1942;-24
2024/02/05 01:03:18;;;;;;;;;;;;;;;;;;2201553;59;1917;-24
2024/02/05 01:05:48;;;;;;;;;;;;;;;;;;2203588;59;1848;-24
2024/02/05 01:08:18;;;;;;;;;;;;;;;;;;2202200;67;1847;-24
2024/02/05 01:10:49;;;;;;;;;;;;;;;;;;2202285;67;1874;-24
2024/02/05 01:13:20;;;;;;;;;;;;;;;;;;2201228;67;2024;-24
2024/02/05 01:15:50;;;;;;;;;;;;;;;;;;2202721;67;1867;-24
2024/02/05 01:18:20;;;;;;;;;;;;;;;;;;2201280;59;1792;-24
2024/02/05 01:20:51;;;;;;;;;;;;;;;;;;2203061;59;2165;-24
2024/02/05 01:23:22;;;;;;;;;;;;;;;;;;2201343;59;1933;-24
2024/02/05 01:25:52;;;;;;;;;;;;;;;;;;2201963;67;2576;-24
2024/02/05 01:28:23;;;;;;;;;;;;;;;;;;2201881;67;1804;-24
2024/02/05 01:30:53;;;;;;;;;;;;;;;;;;2201800;66;1792;-24
2024/02/05 01:33:23;;;;;;;;;;;;;;;;;;2201059;59;2259;-24
2024/02/05 01:35:54;;;;;;;;;;;;;;;;;;2202547;64;1890;-24
2024/02/05 01:38:24;;;;;;;;;;;;;;;;;;2200708;67;1734;-24
2024/02/05 01:40:55;;;;;;;;;;;;;;;;;;2201784;59;1818;-24
2024/02/05 01:43:25;;;;;;;;;;;;;;;;;;2200905;67;1940;-24
2024/02/05 01:45:56;;;;;;;;;;;;;;;;;;2202530;59;1858;-24
2024/02/05 01:48:29;;;;;;;;;;;;;;;;;;2201821;59;2459;-24
2024/02/05 01:51:00;;;;;;;;;;;;;;;;;;2202575;59;2324;-24
2024/02/05 01:53:32;;;;;;;;;;;;;;;;;;2202093;59;1991;-24
2024/02/05 01:56:02;;;;;;;;;;;;;;;;;;2202113;59;1752;-24
2024/02/05 01:58:33;;;;;;;;;;;;;;;;;;2202730;59;1976;-24
2024/02/05 02:01:06;;;;;;;;;;;;;;;;;;2200153;60;1858;-24
2024/02/05 02:03:39;;;;;;;;;;;;;;;;;;2201948;67;1952;-24
2024/02/05 02:06:10;;;;;;;;;;;;;;;;;;2201486;67;1863;-24
2024/02/05 02:08:41;;;;;;;;;;;;;;;;;;2202629;67;1760;-24
2024/02/05 02:11:11;;;;;;;;;;;;;;;;;;2201214;59;2236;-24
2024/02/05 02:13:43;;;;;;;;;;;;;;;;;;2201128;59;1862;-24
2024/02/05 02:16:19;;;;;;;;;;;;;;;;;;2202172;67;1969;-24
2024/02/05 02:18:51;;;;;;;;;;;;;;;;;;2201520;67;2025;-24
2024/02/05 02:21:22;;;;;;;;;;;;;;;;;;2202703;59;2174;-24
2024/02/05 02:23:52;;;;;;;;;;;;;;;;;;2201333;59;1940;-24
2024/02/05 02:26:22;;;;;;;;;;;;;;;;;;2198041;59;1690;-24
2024/02/05 02:28:53;;;;;;;;;;;;;;;;;;2201750;59;1864;-24
2024/02/05 02:31:25;;;;;;;;;;;;;;;;;;2200979;67;1792;-24
2024/02/05 02:34:06;;;;;;;;;;;;;;;;;;2201732;59;2744;-24
2024/02/05 02:36:39;;;;;;;;;;;;;;;;;;2202495;59;1966;-24
2024/02/05 02:39:17;;;;;;;;;;;;;;;;;;2201132;59;1794;-24
2024/02/05 02:41:49;;;;;;;;;;;;;;;;;;2203097;59;2008;-24
2024/02/05 02:44:19;;;;;;;;;;;;;;;;;;2201703;67;1990;-24
2024/02/05 02:46:51;;;;;;;;;;;;;;;;;;2203066;59;1774;-25
2024/02/05 02:49:22;;;;;;;;;;;;;;;;;;2201728;59;1819;-24
2024/02/05 02:51:52;;;;;;;;;;;;;;;;;;2201595;59;1835;-24
2024/02/05 02:54:22;;;;;;;;;;;;;;;;;;2202102;67;2268;-24
2024/02/05 02:56:53;;;;;;;;;;;;;;;;;;2203360;59;2025;-24
2024/02/05 02:59:23;;;;;;;;;;;;;;;;;;2201821;59;2222;-24
2024/02/05 03:01:53;;;;;;;;;;;;;;;;;;2203153;59;1847;-24
2024/02/05 03:04:24;;;;;;;;;;;;;;;;;;2202888;67;2004;-24
2024/02/05 03:06:55;;;;;;;;;;;;;;;;;;2203876;67;2135;-24
2024/02/05 03:09:25;;;;;;;;;;;;;;;;;;2202167;59;1965;-24
2024/02/05 03:11:55;;;;;;;;;;;;;;;;;;2202901;67;1860;-24
2024/02/05 03:14:26;;;;;;;;;;;;;;;;;;2201310;59;1837;-24
2024/02/05 03:16:56;;;;;;;;;;;;;;;;;;2204056;59;1818;-24
2024/02/05 03:19:27;;;;;;;;;;;;;;;;;;2203554;59;1985;-24
2024/02/05 03:21:58;;;;;;;;;;;;;;;;;;2203997;67;1981;-24
2024/02/05 03:24:28;;;;;;;;;;;;;;;;;;2202141;59;1976;-24
2024/02/05 03:26:59;;;;;;;;;;;;;;;;;;2203087;59;1792;-31
2024/02/05 03:29:29;;;;;;;;;;;;;;;;;;2201808;59;1992;-24
2024/02/05 03:32:00;;;;;;;;;;;;;;;;;;2202004;67;1788;-24
2024/02/05 03:34:30;;;;;;;;;;;;;;;;;;2201061;59;2708;-24
2024/02/05 03:37:01;;;;;;;;;;;;;;;;;;2202489;59;1825;-24
2024/02/05 03:39:31;;;;;;;;;;;;;;;;;;2201284;67;1827;-24
2024/02/05 03:42:02;;;;;;;;;;;;;;;;;;2199575;59;1821;-24
2024/02/05 03:44:32;;;;;;;;;;;;;;;;;;2201691;59;2003;-24
2024/02/05 03:47:03;;;;;;;;;;;;;;;;;;2201158;59;1894;-24
2024/02/05 03:49:33;;;;;;;;;;;;;;;;;;2201368;67;1856;-24
2024/02/05 03:52:03;;;;;;;;;;;;;;;;;;2202664;59;1870;-24
2024/02/05 03:54:34;;;;;;;;;;;;;;;;;;2200969;59;2037;-24
2024/02/05 03:57:04;;;;;;;;;;;;;;;;;;2202395;67;1866;-24
2024/02/05 03:59:34;;;;;;;;;;;;;;;;;;2200885;59;1882;-24
2024/02/05 04:02:05;;;;;;;;;;;;;;;;;;2202502;67;1715;-24
2024/02/05 04:04:36;;;;;;;;;;;;;;;;;;2201259;59;1994;-24
2024/02/05 04:07:06;;;;;;;;;;;;;;;;;;2203229;59;1854;-24
2024/02/05 04:09:37;;;;;;;;;;;;;;;;;;2201046;59;1817;-24
2024/02/05 04:12:07;;;;;;;;;;;;;;;;;;2202756;59;1905;-24
2024/02/05 04:14:37;;;;;;;;;;;;;;;;;;2201228;64;1688;-24
2024/02/05 04:17:10;;;;;;;;;;;;;;;;;;2202798;67;1934;-24
2024/02/05 04:19:43;;;;;;;;;;;;;;;;;;2202446;59;1961;-24
2024/02/05 04:22:13;;;;;;;;;;;;;;;;;;2203803;59;1848;-24
2024/02/05 04:24:43;;;;;;;;;;;;;;;;;;2202585;59;1947;-24
2024/02/05 04:27:14;;;;;;;;;;;;;;;;;;2201486;59;1898;-24
2024/02/05 04:29:44;;;;;;;;;;;;;;;;;;2202662;60;2010;-24
2024/02/05 04:32:15;;;;;;;;;;;;;;;;;;2200926;59;2253;-24
2024/02/05 04:34:45;;;;;;;;;;;;;;;;;;2202514;59;2061;-24
2024/02/05 04:37:15;;;;;;;;;;;;;;;;;;2200763;59;1772;-24
2024/02/05 04:39:45;;;;;;;;;;;;;;;;;;2202635;59;1768;-24
2024/02/05 04:42:16;;;;;;;;;;;;;;;;;;2201852;59;1858;-24
2024/02/05 04:44:46;;;;;;;;;;;;;;;;;;2202545;59;2044;-24
2024/02/05 04:47:16;;;;;;;;;;;;;;;;;;2201748;59;1828;-24
2024/02/05 04:49:47;;;;;;;;;;;;;;;;;;2203027;59;1880;-24
2024/02/05 04:52:17;;;;;;;;;;;;;;;;;;2201098;59;2185;-24
2024/02/05 04:54:47;;;;;;;;;;;;;;;;;;2202866;67;1943;-24
2024/02/05 04:57:18;;;;;;;;;;;;;;;;;;2201977;67;2069;-24
2024/02/05 04:59:48;;;;;;;;;;;;;;;;;;2201700;59;1914;-24
2024/02/05 05:02:18;;;;;;;;;;;;;;;;;;2201029;67;2033;-24
2024/02/05 05:04:49;;;;;;;;;;;;;;;;;;2202286;67;2367;-24
2024/02/05 05:07:19;;;;;;;;;;;;;;;;;;2201001;59;2069;-24
2024/02/05 05:09:49;;;;;;;;;;;;;;;;;;2203061;59;2105;-24
2024/02/05 05:12:19;;;;;;;;;;;;;;;;;;2201632;67;1985;-24
2024/02/05 05:14:49;;;;;;;;;;;;;;;;;;2202820;59;1937;-24
2024/02/05 05:17:20;;;;;;;;;;;;;;;;;;2201360;59;1769;-24
2024/02/05 05:19:50;;;;;;;;;;;;;;;;;;2203121;59;1706;-24
2024/02/05 05:22:20;;;;;;;;;;;;;;;;;;2201485;59;1991;-24
2024/02/05 05:24:50;;;;;;;;;;;;;;;;;;2203706;59;1788;-24
2024/02/05 05:27:21;;;;;;;;;;;;;;;;;;2203353;59;1833;-24
2024/02/05 05:29:51;;;;;;;;;;;;;;;;;;2203995;60;1803;-24
2024/02/05 05:32:21;;;;;;;;;;;;;;;;;;2203315;59;1784;-24
2024/02/05 05:34:51;;;;;;;;;;;;;;;;;;2204220;59;1772;-24
2024/02/05 05:37:22;;;;;;;;;;;;;;;;;;2203264;59;1680;-24
2024/02/05 05:39:52;;;;;;;;;;;;;;;;;;2202621;59;2309;-24
2024/02/05 05:42:22;;;;;;;;;;;;;;;;;;2201476;59;2002;-24
2024/02/05 05:44:54;;;;;;;;;;;;;;;;;;2201690;59;1866;-24
2024/02/05 05:47:24;;;;;;;;;;;;;;;;;;2201376;67;1953;-24
2024/02/05 05:49:54;;;;;;;;;;;;;;;;;;2202023;59;1829;-24
2024/02/05 05:52:25;;;;;;;;;;;;;;;;;;2197603;59;2644;-24
2024/02/05 05:54:55;;;;;;;;;;;;;;;;;;2202880;59;1842;-24
2024/02/05 05:57:27;;;;;;;;;;;;;;;;;;2201178;59;1750;-24
2024/02/05 05:59:59;;;;;;;;;;;;;;;;;;2202081;59;2071;-24
2024/02/05 06:02:29;;;;;;;;;;;;;;;;;;2201260;67;1992;-24
2024/02/05 06:04:59;;;;;;;;;;;;;;;;;;2202138;59;2006;-24
2024/02/05 06:07:29;;;;;;;;;;;;;;;;;;2200835;59;1801;-24
2024/02/05 06:09:59;;;;;;;;;;;;;;;;;;2202440;59;1923;-24
2024/02/05 06:12:30;;;;;;;;;;;;;;;;;;2201996;67;1962;-24
2024/02/05 06:15:00;;;;;;;;;;;;;;;;;;2202721;59;1987;-24
2024/02/05 06:17:31;;;;;;;;;;;;;;;;;;2199722;59;2560;-24
2024/02/05 06:20:02;;;;;;;;;;;;;;;;;;2198457;59;1926;-24
2024/02/05 06:22:36;;;;;;;;;;;;;;;;;;2200966;67;1966;-24
2024/02/05 06:25:06;;;;;;;;;;;;;;;;;;2202729;59;1761;-24
2024/02/05 06:27:36;;;;;;;;;;;;;;;;;;2201799;67;2528;-24
2024/02/05 06:30:07;;;;;;;;;;;;;;;;;;2202205;67;1817;-24
2024/02/05 06:32:37;;;;;;;;;;;;;;;;;;2201325;67;1893;-24
2024/02/05 06:35:08;;;;;;;;;;;;;;;;;;2202947;59;2171;-24
2024/02/05 06:37:38;;;;;;;;;;;;;;;;;;2201596;59;2846;-24
2024/02/05 06:40:09;;;;;;;;;;;;;;;;;;2202774;59;1922;-24
2024/02/05 06:42:39;;;;;;;;;;;;;;;;;;2201751;59;2007;-24
2024/02/05 06:45:10;;;;;;;;;;;;;;;;;;2201627;67;2569;-24
2024/02/05 06:47:40;;;;;;;;;;;;;;;;;;2201199;59;2364;-24
2024/02/05 06:50:10;;;;;;;;;;;;;;;;;;2201005;59;2496;-24
2024/02/05 06:52:41;;;;;;;;;;;;;;;;;;2201144;59;3072;-24
2024/02/05 06:55:11;;;;;;;;;;;;;;;;;;2202462;59;2527;-24
2024/02/05 06:57:41;;;;;;;;;;;;;;;;;;2200622;59;2768;-24
2024/02/05 07:00:12;;;;;;;;;;;;;;;;;;2200333;59;2610;-25
2024/02/05 07:02:42;;;;;;;;;;;;;;;;;;2199923;59;2306;-24
2024/02/05 07:05:14;;;;;;;;;;;;;;;;;;2201172;59;2726;-24
2024/02/05 07:07:44;;;;;;;;;;;;;;;;;;2200168;59;2730;-24
2024/02/05 07:10:15;;;;;;;;;;;;;;;;;;2201679;67;2400;-24
2024/02/05 07:12:45;;;;;;;;;;;;;;;;;;2200286;59;1929;-24
2024/02/05 07:15:16;;;;;;;;;;;;;;;;;;2202880;59;2248;-24
2024/02/05 07:17:47;;;;;;;;;;;;;;;;;;2200725;59;2522;-24
2024/02/05 07:20:17;;;;;;;;;;;;;;;;;;2202125;59;2554;-24
2024/02/05 07:22:47;;;;;;;;;;;;;;;;;;2200496;59;2639;-24
2024/02/05 07:25:17;;;;;;;;;;;;;;;;;;2201681;59;2700;-24
2024/02/05 07:27:48;;;;;;;;;;;;;;;;;;2201421;67;2802;-24
2024/02/05 07:30:19;;;;;;;;;;;;;;;;;;2201842;59;2513;-24
2024/02/05 07:32:49;;;;;;;;;;;;;;;;;;2200553;59;2476;-24
2024/02/05 07:35:22;;;;;;;;;;;;;;;;;;2201133;60;2908;-24
2024/02/05 07:37:52;;;;;;;;;;;;;;;;;;2201808;59;2680;-24
2024/02/05 07:40:22;;;;;;;;;;;;;;;;;;2201117;59;2250;-24
2024/02/05 07:42:52;;;;;;;;;;;;;;;;;;2202330;59;2224;-24
2024/02/05 07:45:22;;;;;;;;;;;;;;;;;;2202209;67;2864;-25
2024/02/05 07:47:53;;;;;;;;;;;;;;;;;;2202551;59;1885;-24
2024/02/05 07:50:23;;;;;;;;;;;;;;;;;;2201776;67;1874;-25
2024/02/05 07:52:53;;;;;;;;;;;;;;;;;;2203013;59;1820;-24
2024/02/05 07:55:23;;;;;;;;;;;;;;;;;;2199394;67;3304;-25
2024/02/05 07:57:54;;;;;;;;;;;;;;;;;;2206048;53;3717;-18
2024/02/05 08:00:24;;;;;;;;;;;;;;;;;;2202563;59;1903;-17
2024/02/05 08:02:55;;;;;;;;;;;;;;;;;;2206453;59;1940;-17
2024/02/05 08:05:25;;;;;;;;;;;;;;;;;;2204061;59;1870;-17
2024/02/05 08:07:56;;;;;;;;;;;;;;;;;;2206395;59;2375;-17
2024/02/05 08:10:26;;;;;;;;;;;;;;;;;;2205434;67;2013;-17
2024/02/05 08:12:57;;;;;;;;;;;;;;;;;;2206773;67;2437;-17
2024/02/05 08:15:27;;;;;;;;;;;;;;;;;;2205287;59;2132;-17
2024/02/05 08:17:57;;;;;;;;;;;;;;;;;;2205792;67;1861;-17
2024/02/05 08:20:28;;;;;;;;;;;;;;;;;;2204830;59;1879;-17
2024/02/05 08:22:58;;;;;;;;;;;;;;;;;;2206863;59;1913;-17
2024/02/05 08:25:29;;;;;;;;;;;;;;;;;;2206970;59;2382;-17
2024/02/05 08:28:00;;;;;;;;;;;;;;;;;;2206899;67;1953;-17
2024/02/05 08:30:30;;;;;;;;;;;;;;;;;;2206891;59;2569;-17
2024/02/05 08:33:00;;;;;;;;;;;;;;;;;;2206389;59;1961;-17
2024/02/05 08:35:31;;;;;;;;;;;;;;;;;;2204134;67;1794;-17
2024/02/05 08:38:01;;;;;;;;;;;;;;;;;;2205743;59;3152;-17
2024/02/05 08:40:31;;;;;;;;;;;;;;;;;;2205713;59;2332;-17
2024/02/05 08:43:02;;;;;;;;;;;;;;;;;;2205236;67;1944;-17
2024/02/05 08:45:32;;;;;;;;;;;;;;;;;;2205365;67;2628;-17
2024/02/05 08:48:03;;;;;;;;;;;;;;;;;;2205566;67;1863;-17
2024/02/05 08:50:35;;;;;;;;;;;;;;;;;;2205924;59;2392;-17
2024/02/05 08:53:06;;;;;;;;;;;;;;;;;;2204741;59;1475;-17
2024/02/05 08:55:38;;;;;;;;;;;;;;;;;;2205515;59;1954;-17
2024/02/05 08:58:08;;;;;;;;;;;;;;;;;;2206714;59;1854;-17
2024/02/05 09:00:38;;;;;;;;;;;;;;;;;;2205396;59;1790;-17
2024/02/05 09:03:10;;;;;;;;;;;;;;;;;;2205684;67;1977;-16
2024/02/05 09:05:40;;;;;;;;;;;;;;;;;;2205745;59;1834;-17
2024/02/05 09:08:10;;;;;;;;;;;;;;;;;;2206055;67;1821;-19
2024/02/05 09:10:41;;;;;;;;;;;;;;;;;;2205308;67;1759;-19
2024/02/05 09:13:11;;;;;;;;;;;;;;;;;;2206679;59;2244;-19
2024/02/05 09:15:43;;;;;;;;;;;;;;;;;;2206906;59;1725;-19
2024/02/05 09:18:14;;;;;;;;;;;;;;;;;;2207092;59;1829;-19
2024/02/05 09:20:46;;;;;;;;;;;;;;;;;;2206548;59;1844;-17
2024/02/05 09:23:16;;;;;;;;;;;;;;;;;;2207136;59;1962;-17
2024/02/05 09:25:47;;;;;;;;;;;;;;;;;;2204009;59;2703;-17
2024/02/05 09:28:17;;;;;;;;;;;;;;;;;;2206179;59;1802;-17
2024/02/05 09:30:48;;;;;;;;;;;;;;;;;;2206013;59;1890;-17
2024/02/05 09:33:18;;;;;;;;;;;;;;;;;;2205544;59;2514;-17
2024/02/05 09:35:49;;;;;;;;;;;;;;;;;;2205515;59;2679;-17
2024/02/05 09:38:22;;;;;;;;;;;;;;;;;;2206279;59;2072;-17
2024/02/05 09:40:58;;;;;;;;;;;;;;;;;;2206057;67;2933;-16
2024/02/05 09:43:30;;;;;;;;;;;;;;;;;;2205572;59;2549;-17
2024/02/05 09:46:03;;;;;;;;;;;;;;;;;;2205868;59;1910;-17
2024/02/05 09:48:34;;;;;;;;;;;;;;;;;;2203907;59;2148;-19
2024/02/05 09:51:04;;;;;;;;;;;;;;;;;;2204575;59;2438;-19
2024/02/05 09:53:35;;;;;;;;;;;;;;;;;;2202626;59;2791;-19
2024/02/05 09:56:06;;;;;;;;;;;;;;;;;;2205583;59;3931;-19
2024/02/05 09:58:36;;;;;;;;;;;;;;;;;;2207157;59;1871;-19
2024/02/05 10:01:07;;;;;;;;;;;;;;;;;;2204860;59;1883;-19
2024/02/05 10:03:38;;;;;;;;;;;;;;;;;;2204361;67;2533;-19
2024/02/05 10:06:10;;;;;;;;;;;;;;;;;;2204561;67;1745;-19
2024/02/05 10:08:41;;;;;;;;;;;;;;;;;;2203911;59;1949;-19
2024/02/05 10:11:12;;;;;;;;;;;;;;;;;;2203236;59;1885;-19
2024/02/05 10:13:42;;;;;;;;;;;;;;;;;;2203864;67;1773;-19
2024/02/05 10:16:12;;;;;;;;;;;;;;;;;;2203464;67;2825;-19
2024/02/05 10:18:43;;;;;;;;;;;;;;;;;;2203201;59;1993;-19
2024/02/05 10:21:13;;;;;;;;;;;;;;;;;;2204521;67;1790;-19
2024/02/05 10:23:50;;;;;;;;;;;;;;;;;;2201822;67;1959;-19
2024/02/05 10:26:24;;;;;;;;;;;;;;;;;;2203647;67;1876;-19
2024/02/05 10:29:04;;;;;;;;;;;;;;;;;;2200785;67;1767;-19
2024/02/05 10:31:42;;;;;;;;;;;;;;;;;;2203437;67;2203;-19
2024/02/05 10:34:17;;;;;;;;;;;;;;;;;;2204902;59;3312;-19
2024/02/05 10:36:47;;;;;;;;;;;;;;;;;;2203044;59;2462;-19
2024/02/05 10:39:18;;;;;;;;;;;;;;;;;;2204472;59;1879;-19
2024/02/05 10:41:49;;;;;;;;;;;;;;;;;;2204094;67;2114;-19
2024/02/05 10:44:20;;;;;;;;;;;;;;;;;;2204569;59;1929;-19
2024/02/05 10:46:50;;;;;;;;;;;;;;;;;;2204589;62;1849;-19
2024/02/05 10:49:20;;;;;;;;;;;;;;;;;;2206137;59;2266;-19
2024/02/05 10:51:51;;;;;;;;;;;;;;;;;;2204481;59;2559;-19
2024/02/05 10:54:22;;;;;;;;;;;;;;;;;;2205921;67;2339;-19
2024/02/05 10:56:53;;;;;;;;;;;;;;;;;;2202258;67;1814;-19
2024/02/05 10:59:23;;;;;;;;;;;;;;;;;;2204895;59;1747;-20
2024/02/05 11:01:59;;;;;;;;;;;;;;;;;;2205463;67;1893;-19
2024/02/05 11:04:30;;;;;;;;;;;;;;;;;;2204380;67;1996;-20
2024/02/05 11:07:03;;;;;;;;;;;;;;;;;;2201617;67;1945;-20
2024/02/05 11:09:36;;;;;;;;;;;;;;;;;;2205092;67;1827;-20
2024/02/05 11:12:08;;;;;;;;;;;;;;;;;;2205730;67;2400;-19
2024/02/05 11:14:40;;;;;;;;;;;;;;;;;;2203949;67;2534;-19
2024/02/05 11:17:10;;;;;;;;;;;;;;;;;;2205111;67;1759;-20
2024/02/05 11:19:41;;;;;;;;;;;;;;;;;;2204859;67;2655;-20
2024/02/05 11:22:15;;;;;;;;;;;;;;;;;;2206737;59;2634;-19
2024/02/05 11:24:46;;;;;;;;;;;;;;;;;;2204255;67;1943;-20
2024/02/05 11:27:16;;;;;;;;;;;;;;;;;;2205532;59;2454;-19
2024/02/05 11:29:47;;;;;;;;;;;;;;;;;;2204930;67;2018;-19
2024/02/05 11:32:17;;;;;;;;;;;;;;;;;;2205307;59;1861;-19
2024/02/05 11:34:47;;;;;;;;;;;;;;;;;;2204698;59;3441;-19
2024/02/05 11:37:19;;;;;;;;;;;;;;;;;;2205708;59;1762;-19
2024/02/05 11:39:51;;;;;;;;;;;;;;;;;;2204458;67;2472;-19
2024/02/05 11:42:21;;;;;;;;;;;;;;;;;;2205371;59;2214;-19
2024/02/05 11:44:52;;;;;;;;;;;;;;;;;;2203130;59;1940;-19
2024/02/05 11:47:23;;;;;;;;;;;;;;;;;;2203675;67;2465;-20
2024/02/05 11:49:55;;;;;;;;;;;;;;;;;;2201669;59;1948;-19
2024/02/05 11:52:25;;;;;;;;;;;;;;;;;;2203917;59;1872;-19
2024/02/05 11:54:56;;;;;;;;;;;;;;;;;;2202713;59;1907;-19
2024/02/05 11:57:26;;;;;;;;;;;;;;;;;;2206846;67;1843;-19
2024/02/05 11:59:57;;;;;;;;;;;;;;;;;;2204050;59;2084;-19
2024/02/05 12:02:27;;;;;;;;;;;;;;;;;;2205311;59;2220;-19
2024/02/05 12:04:58;;;;;;;;;;;;;;;;;;2204109;67;2364;-19
2024/02/05 12:07:29;;;;;;;;;;;;;;;;;;2207569;59;2211;-19
2024/02/05 12:09:59;;;;;;;;;;;;;;;;;;2202919;59;2061;-19
2024/02/05 12:12:31;;;;;;;;;;;;;;;;;;2204156;67;2861;-19
2024/02/05 12:15:01;;;;;;;;;;;;;;;;;;2205251;66;2464;-19
2024/02/05 12:17:33;;;;;;;;;;;;;;;;;;2205225;67;1771;-19
2024/02/05 12:20:04;;;;;;;;;;;;;;;;;;2204737;67;2829;-19
2024/02/05 12:22:34;;;;;;;;;;;;;;;;;;2205204;59;1907;-19
2024/02/05 12:25:05;;;;;;;;;;;;;;;;;;2203562;59;1999;-19
2024/02/05 12:27:35;;;;;;;;;;;;;;;;;;2205923;67;1765;-19
2024/02/05 12:30:06;;;;;;;;;;;;;;;;;;2203805;67;2128;-19
2024/02/05 12:32:36;;;;;;;;;;;;;;;;;;2208072;67;1792;-19
2024/02/05 12:35:06;;;;;;;;;;;;;;;;;;2205377;59;2453;-20
2024/02/05 12:37:37;;;;;;;;;;;;;;;;;;2204488;59;1931;-19
2024/02/05 12:40:09;;;;;;;;;;;;;;;;;;2203067;67;2898;-19
2024/02/05 12:42:40;;;;;;;;;;;;;;;;;;2204629;59;2696;-20
2024/02/05 12:45:11;;;;;;;;;;;;;;;;;;2206128;67;1940;-20
2024/02/05 12:47:41;;;;;;;;;;;;;;;;;;2203021;67;2136;-20
2024/02/05 12:50:13;;;;;;;;;;;;;;;;;;2201880;59;4493;-20
2024/02/05 12:52:44;;;;;;;;;;;;;;;;;;2202319;59;3107;-20
2024/02/05 12:55:14;;;;;;;;;;;;;;;;;;2204700;67;2663;-31
2024/02/05 12:57:44;;;;;;;;;;;;;;;;;;2203500;59;1834;-20
2024/02/05 13:00:15;;;;;;;;;;;;;;;;;;2204042;59;2192;-19
2024/02/05 13:02:46;;;;;;;;;;;;;;;;;;2202512;59;2243;-20
2024/02/05 13:05:17;;;;;;;;;;;;;;;;;;2203337;59;2681;-19
2024/02/05 13:07:48;;;;;;;;;;;;;;;;;;2202444;67;2434;-19
2024/02/05 13:10:20;;;;;;;;;;;;;;;;;;2204085;67;1920;-19
2024/02/05 13:12:51;;;;;;;;;;;;;;;;;;2204348;59;2495;-20
2024/02/05 13:15:22;;;;;;;;;;;;;;;;;;2203752;67;1891;-20
2024/02/05 13:17:52;;;;;;;;;;;;;;;;;;2202014;59;1867;-20
2024/02/05 13:20:22;;;;;;;;;;;;;;;;;;2205196;64;1809;-20
2024/02/05 13:22:53;;;;;;;;;;;;;;;;;;2206158;59;1982;-19
2024/02/05 13:25:23;;;;;;;;;;;;;;;;;;2205565;59;2417;-19
2024/02/05 13:27:54;;;;;;;;;;;;;;;;;;2202894;67;3210;-19
2024/02/05 13:30:25;;;;;;;;;;;;;;;;;;2204415;67;2826;-19
2024/02/05 13:32:55;;;;;;;;;;;;;;;;;;2202126;59;1765;-29
2024/02/05 13:35:25;;;;;;;;;;;;;;;;;;2203458;67;2879;-19
2024/02/05 13:37:56;;;;;;;;;;;;;;;;;;2203619;59;1849;-19
2024/02/05 13:40:26;;;;;;;;;;;;;;;;;;2204149;59;2069;-19
2024/02/05 13:42:56;;;;;;;;;;;;;;;;;;2201752;67;2924;-19
2024/02/05 13:45:27;;;;;;;;;;;;;;;;;;2206398;67;3422;-18
2024/02/05 13:47:58;;;;;;;;;;;;;;;;;;2199835;67;2673;-17
2024/02/05 13:50:28;;;;;;;;;;;;;;;;;;2204391;59;2198;-17
2024/02/05 13:53:00;;;;;;;;;;;;;;;;;;2202037;59;2376;-17
2024/02/05 13:55:31;;;;;;;;;;;;;;;;;;2206696;59;2711;-17
2024/02/05 13:58:01;;;;;;;;;;;;;;;;;;2200621;59;2552;-17
2024/02/05 14:00:31;;;;;;;;;;;;;;;;;;2204109;59;2829;-17
2024/02/05 14:03:01;;;;;;;;;;;;;;;;;;2202351;67;2506;-17
2024/02/05 14:05:33;;;;;;;;;;;;;;;;;;2200570;59;2754;-17
2024/02/05 14:08:04;;;;;;;;;;;;;;;;;;2203097;59;2515;-17
2024/02/05 14:10:34;;;;;;;;;;;;;;;;;;2204408;59;2483;-17
2024/02/05 14:13:04;;;;;;;;;;;;;;;;;;2201670;59;2438;-17
2024/02/05 14:15:35;;;;;;;;;;;;;;;;;;2203379;59;2655;-17
2024/02/05 14:18:05;;;;;;;;;;;;;;;;;;2202596;59;2583;-17
2024/02/05 14:20:35;;;;;;;;;;;;;;;;;;2203647;59;2697;-17
2024/02/05 14:23:06;;;;;;;;;;;;;;;;;;2205455;59;2155;-17
2024/02/05 14:25:36;;;;;;;;;;;;;;;;;;2204570;59;2249;-17
2024/02/05 14:28:09;;;;;;;;;;;;;;;;;;2203540;67;1844;-19
2024/02/05 14:30:39;;;;;;;;;;;;;;;;;;2204543;59;2737;-19
2024/02/05 14:33:10;;;;;;;;;;;;;;;;;;2203053;59;2905;-19
2024/02/05 14:35:40;;;;;;;;;;;;;;;;;;2204963;67;1865;-19
2024/02/05 14:38:10;;;;;;;;;;;;;;;;;;2203631;59;1985;-19
2024/02/05 14:40:41;;;;;;;;;;;;;;;;;;2204865;67;1972;-19
2024/02/05 14:43:11;;;;;;;;;;;;;;;;;;2203282;67;2220;-19
2024/02/05 14:45:41;;;;;;;;;;;;;;;;;;2205239;67;2085;-19
2024/02/05 14:48:11;;;;;;;;;;;;;;;;;;2206516;63;1888;-19
2024/02/05 14:50:42;;;;;;;;;;;;;;;;;;2205648;59;2063;-19
2024/02/05 14:53:12;;;;;;;;;;;;;;;;;;2202961;59;2202;-19
2024/02/05 14:55:43;;;;;;;;;;;;;;;;;;2205439;67;1874;-19
2024/02/05 14:58:14;;;;;;;;;;;;;;;;;;2204284;59;2029;-19
2024/02/05 15:00:45;;;;;;;;;;;;;;;;;;2204092;67;2472;-19
2024/02/05 15:03:15;;;;;;;;;;;;;;;;;;2204417;67;2599;-19
2024/02/05 15:05:46;;;;;;;;;;;;;;;;;;2205881;59;2008;-19
2024/02/05 15:08:16;;;;;;;;;;;;;;;;;;2203465;67;2102;-19
2024/02/05 15:10:46;;;;;;;;;;;;;;;;;;2204685;59;2146;-19
2024/02/05 15:13:17;;;;;;;;;;;;;;;;;;2203907;67;2839;-19
2024/02/05 15:15:47;;;;;;;;;;;;;;;;;;2204129;67;1916;-19
2024/02/05 15:18:17;;;;;;;;;;;;;;;;;;2204869;67;2530;-19
2024/02/05 15:20:47;;;;;;;;;;;;;;;;;;2205844;67;2584;-19
2024/02/05 15:23:18;;;;;;;;;;;;;;;;;;2203599;59;2670;-19
2024/02/05 15:25:48;;;;;;;;;;;;;;;;;;2204776;59;2090;-19
2024/02/05 15:28:19;;;;;;;;;;;;;;;;;;2203219;59;2297;-19
2024/02/05 15:30:49;;;;;;;;;;;;;;;;;;2204567;59;2091;-19
2024/02/05 15:33:19;;;;;;;;;;;;;;;;;;2204532;59;2669;-19
2024/02/05 15:35:50;;;;;;;;;;;;;;;;;;2202414;59;2670;-19
2024/02/05 15:38:20;;;;;;;;;;;;;;;;;;2205121;59;2101;-19
2024/02/05 15:40:50;;;;;;;;;;;;;;;;;;2206859;59;2425;-19
2024/02/05 15:43:21;;;;;;;;;;;;;;;;;;2205516;59;2677;-19
2024/02/05 15:45:51;;;;;;;;;;;;;;;;;;2205572;67;2625;-19
2024/02/05 15:48:22;;;;;;;;;;;;;;;;;;2204630;59;2390;-19
2024/02/05 15:50:52;;;;;;;;;;;;;;;;;;2204445;59;2419;-19
2024/02/05 15:53:22;;;;;;;;;;;;;;;;;;2206021;67;1828;-19
2024/02/05 15:55:53;;;;;;;;;;;;;;;;;;2204093;59;2504;-19
2024/02/05 15:58:23;;;;;;;;;;;;;;;;;;2204565;59;1860;-19
2024/02/05 16:00:54;;;;;;;;;;;;;;;;;;2200350;59;2305;-19
2024/02/05 16:03:24;;;;;;;;;;;;;;;;;;2203704;59;2800;-19
2024/02/05 16:05:57;;;;;;;;;;;;;;;;;;2202164;67;2544;-19
2024/02/05 16:08:28;;;;;;;;;;;;;;;;;;2203410;59;2516;-19
2024/02/05 16:10:58;;;;;;;;;;;;;;;;;;2202772;59;2192;-19
2024/02/05 16:13:28;;;;;;;;;;;;;;;;;;2206067;67;1770;-19
2024/02/05 16:15:58;;;;;;;;;;;;;;;;;;2200869;59;1835;-19
2024/02/05 16:18:29;;;;;;;;;;;;;;;;;;2204936;67;1956;-19
2024/02/05 16:20:59;;;;;;;;;;;;;;;;;;2203203;67;3149;-19
2024/02/05 16:23:30;;;;;;;;;;;;;;;;;;2204470;59;1956;-19
2024/02/05 16:26:00;;;;;;;;;;;;;;;;;;2204028;59;1821;-19
2024/02/05 16:28:30;;;;;;;;;;;;;;;;;;2207778;67;3447;-19
2024/02/05 16:31:00;;;;;;;;;;;;;;;;;;2203465;59;2483;-19
2024/02/05 16:33:31;;;;;;;;;;;;;;;;;;2205843;59;1804;-19
2024/02/05 16:36:01;;;;;;;;;;;;;;;;;;2207299;59;2179;-19
2024/02/05 16:38:31;;;;;;;;;;;;;;;;;;2208128;59;2486;-19
2024/02/05 16:41:03;;;;;;;;;;;;;;;;;;2206491;59;2425;-19
2024/02/05 16:43:33;;;;;;;;;;;;;;;;;;2205045;59;2366;-19
2024/02/05 16:46:03;;;;;;;;;;;;;;;;;;2204138;67;1970;-18
2024/02/05 16:48:33;;;;;;;;;;;;;;;;;;2205700;67;2447;-19
2024/02/05 16:51:04;;;;;;;;;;;;;;;;;;2201567;67;2157;-19
2024/02/05 16:53:36;;;;;;;;;;;;;;;;;;2205652;59;2335;-19
2024/02/05 16:56:07;;;;;;;;;;;;;;;;;;2203697;67;1808;-19
2024/02/05 16:58:37;;;;;;;;;;;;;;;;;;2205912;59;1882;-19
2024/02/05 17:01:08;;;;;;;;;;;;;;;;;;2206011;59;2469;-19
2024/02/05 17:03:39;;;;;;;;;;;;;;;;;;2204915;67;2627;-19
2024/02/05 17:06:10;;;;;;;;;;;;;;;;;;2203745;67;2672;-19
2024/02/05 17:08:41;;;;;;;;;;;;;;;;;;2205213;67;2023;-19
2024/02/05 17:11:12;;;;;;;;;;;;;;;;;;2204357;67;3673;-19
2024/02/05 17:13:42;;;;;;;;;;;;;;;;;;2201392;59;2730;-19
2024/02/05 17:16:12;;;;;;;;;;;;;;;;;;2203427;59;2854;-19
2024/02/05 17:18:42;;;;;;;;;;;;;;;;;;2204657;59;2376;-19
2024/02/05 17:21:16;;;;;;;;;;;;;;;;;;2203906;59;2313;-19
2024/02/05 17:23:46;;;;;;;;;;;;;;;;;;2205324;59;2262;-19
2024/02/05 17:26:16;;;;;;;;;;;;;;;;;;2204597;59;2127;-19